sensor_id;sensor_type;location;lat;lon;timestamp;P1;durP1;ratioP1;P2;durP2;ratioP2
77191;SDS011;66172;48.526;8.078;2023-05-16T00:00:19;17.33;;;9.05;;
77191;SDS011;66172;48.526;8.078;2023-05-16T00:02:45;15.77;;;10.20;;
77191;SDS011;66172;48.526;8.078;2023-05-16T00:05:12;15.33;;;9.53;;
77191;SDS011;66172;48.526;8.078;2023-05-16T00:07:41;14.90;;;9.38;;
77191;SDS011;66172;48.526;8.078;2023-05-16T00:10:08;15.43;;;9.55;;
77191;SDS011;66172;48.526;8.078;2023-05-16T00:12:35;14.98;;;10.10;;
77191;SDS011;66172;48.526;8.078;2023-05-16T00:15:04;15.85;;;9.70;;
77191;SDS011;66172;48.526;8.078;2023-05-16T00:17:34;16.97;;;9.97;;
77191;SDS011;66172;48.526;8.078;2023-05-16T00:20:00;15.07;;;9.55;;
77191;SDS011;66172;48.526;8.078;2023-05-16T00:22:35;15.88;;;9.30;;
77191;SDS011;66172;48.526;8.078;2023-05-16T00:25:02;14.15;;;9.10;;
77191;SDS011;66172;48.526;8.078;2023-05-16T00:27:28;15.48;;;9.80;;
77191;SDS011;66172;48.526;8.078;2023-05-16T00:29:54;14.83;;;9.23;;
77191;SDS011;66172;48.526;8.078;2023-05-16T00:32:20;16.48;;;9.52;;
77191;SDS011;66172;48.526;8.078;2023-05-16T00:34:46;16.65;;;10.13;;
77191;SDS011;66172;48.526;8.078;2023-05-16T00:37:13;16.60;;;9.32;;
77191;SDS011;66172;48.526;8.078;2023-05-16T00:39:39;18.50;;;9.95;;
77191;SDS011;66172;48.526;8.078;2023-05-16T00:42:05;16.33;;;8.90;;
77191;SDS011;66172;48.526;8.078;2023-05-16T00:44:31;18.92;;;9.95;;
77191;SDS011;66172;48.526;8.078;2023-05-16T00:46:57;18.13;;;10.80;;
77191;SDS011;66172;48.526;8.078;2023-05-16T00:49:24;16.40;;;9.77;;
77191;SDS011;66172;48.526;8.078;2023-05-16T00:51:51;15.80;;;10.43;;
77191;SDS011;66172;48.526;8.078;2023-05-16T00:54:19;16.93;;;9.83;;
77191;SDS011;66172;48.526;8.078;2023-05-16T00:56:47;16.30;;;10.48;;
77191;SDS011;66172;48.526;8.078;2023-05-16T00:59:13;17.73;;;9.95;;
77191;SDS011;66172;48.526;8.078;2023-05-16T01:01:40;18.00;;;9.95;;
77191;SDS011;66172;48.526;8.078;2023-05-16T01:04:06;16.90;;;10.90;;
77191;SDS011;66172;48.526;8.078;2023-05-16T01:06:32;16.50;;;10.32;;
77191;SDS011;66172;48.526;8.078;2023-05-16T01:08:59;16.30;;;10.45;;
77191;SDS011;66172;48.526;8.078;2023-05-16T01:20:21;16.40;;;10.35;;
77191;SDS011;66172;48.526;8.078;2023-05-16T01:26:26;19.33;;;10.18;;
77191;SDS011;66172;48.526;8.078;2023-05-16T01:28:53;17.20;;;10.63;;
77191;SDS011;66172;48.526;8.078;2023-05-16T01:31:19;18.30;;;10.43;;
77191;SDS011;66172;48.526;8.078;2023-05-16T01:33:46;18.15;;;10.35;;
77191;SDS011;66172;48.526;8.078;2023-05-16T01:36:27;18.33;;;10.45;;
77191;SDS011;66172;48.526;8.078;2023-05-16T01:44:22;17.00;;;11.33;;
77191;SDS011;66172;48.526;8.078;2023-05-16T01:46:55;18.23;;;11.00;;
77191;SDS011;66172;48.526;8.078;2023-05-16T01:49:30;17.70;;;11.65;;
77191;SDS011;66172;48.526;8.078;2023-05-16T01:52:02;18.90;;;11.35;;
77191;SDS011;66172;48.526;8.078;2023-05-16T01:54:32;18.83;;;12.05;;
77191;SDS011;66172;48.526;8.078;2023-05-16T01:57:03;19.67;;;11.93;;
77191;SDS011;66172;48.526;8.078;2023-05-16T01:59:29;20.33;;;11.63;;
77191;SDS011;66172;48.526;8.078;2023-05-16T02:01:56;19.73;;;12.00;;
77191;SDS011;66172;48.526;8.078;2023-05-16T02:04:22;18.50;;;12.07;;
77191;SDS011;66172;48.526;8.078;2023-05-16T02:06:48;17.17;;;11.50;;
77191;SDS011;66172;48.526;8.078;2023-05-16T02:09:15;20.50;;;11.57;;
77191;SDS011;66172;48.526;8.078;2023-05-16T02:11:41;19.95;;;12.32;;
77191;SDS011;66172;48.526;8.078;2023-05-16T02:14:08;17.48;;;11.27;;
77191;SDS011;66172;48.526;8.078;2023-05-16T02:16:34;17.15;;;11.88;;
77191;SDS011;66172;48.526;8.078;2023-05-16T02:19:00;18.25;;;11.60;;
77191;SDS011;66172;48.526;8.078;2023-05-16T02:21:26;20.07;;;11.53;;
77191;SDS011;66172;48.526;8.078;2023-05-16T02:23:52;19.60;;;11.48;;
77191;SDS011;66172;48.526;8.078;2023-05-16T02:26:18;17.45;;;11.30;;
77191;SDS011;66172;48.526;8.078;2023-05-16T02:28:44;19.30;;;11.55;;
77191;SDS011;66172;48.526;8.078;2023-05-16T02:31:10;18.23;;;11.20;;
77191;SDS011;66172;48.526;8.078;2023-05-16T02:33:36;21.90;;;12.55;;
77191;SDS011;66172;48.526;8.078;2023-05-16T02:36:02;17.63;;;11.32;;
77191;SDS011;66172;48.526;8.078;2023-05-16T02:38:28;20.77;;;11.77;;
77191;SDS011;66172;48.526;8.078;2023-05-16T02:40:54;18.30;;;12.02;;
77191;SDS011;66172;48.526;8.078;2023-05-16T02:43:19;18.70;;;12.27;;
77191;SDS011;66172;48.526;8.078;2023-05-16T02:45:45;21.98;;;12.25;;
77191;SDS011;66172;48.526;8.078;2023-05-16T02:48:11;21.97;;;12.03;;
77191;SDS011;66172;48.526;8.078;2023-05-16T02:50:37;20.15;;;11.73;;
77191;SDS011;66172;48.526;8.078;2023-05-16T02:53:04;18.90;;;12.13;;
77191;SDS011;66172;48.526;8.078;2023-05-16T02:55:30;19.75;;;12.13;;
77191;SDS011;66172;48.526;8.078;2023-05-16T02:57:56;19.20;;;11.93;;
77191;SDS011;66172;48.526;8.078;2023-05-16T03:00:22;18.52;;;12.15;;
77191;SDS011;66172;48.526;8.078;2023-05-16T03:02:48;19.42;;;11.90;;
77191;SDS011;66172;48.526;8.078;2023-05-16T03:05:14;18.33;;;11.73;;
77191;SDS011;66172;48.526;8.078;2023-05-16T03:07:40;24.13;;;13.83;;
77191;SDS011;66172;48.526;8.078;2023-05-16T03:10:06;21.38;;;13.63;;
77191;SDS011;66172;48.526;8.078;2023-05-16T03:12:32;20.17;;;12.57;;
77191;SDS011;66172;48.526;8.078;2023-05-16T03:14:58;20.40;;;12.87;;
77191;SDS011;66172;48.526;8.078;2023-05-16T03:17:24;23.00;;;13.93;;
77191;SDS011;66172;48.526;8.078;2023-05-16T03:19:50;23.50;;;13.75;;
77191;SDS011;66172;48.526;8.078;2023-05-16T03:22:16;22.00;;;13.30;;
77191;SDS011;66172;48.526;8.078;2023-05-16T03:24:42;22.93;;;13.70;;
77191;SDS011;66172;48.526;8.078;2023-05-16T03:27:08;21.33;;;13.70;;
77191;SDS011;66172;48.526;8.078;2023-05-16T03:29:33;21.63;;;14.32;;
77191;SDS011;66172;48.526;8.078;2023-05-16T03:31:59;22.40;;;14.50;;
77191;SDS011;66172;48.526;8.078;2023-05-16T03:34:25;22.87;;;14.27;;
77191;SDS011;66172;48.526;8.078;2023-05-16T03:36:51;23.98;;;14.60;;
77191;SDS011;66172;48.526;8.078;2023-05-16T03:39:17;24.30;;;15.35;;
77191;SDS011;66172;48.526;8.078;2023-05-16T03:41:43;24.88;;;15.88;;
77191;SDS011;66172;48.526;8.078;2023-05-16T03:44:09;26.23;;;15.17;;
77191;SDS011;66172;48.526;8.078;2023-05-16T03:46:35;25.48;;;15.07;;
77191;SDS011;66172;48.526;8.078;2023-05-16T03:49:01;26.40;;;15.75;;
77191;SDS011;66172;48.526;8.078;2023-05-16T03:51:27;24.07;;;14.73;;
77191;SDS011;66172;48.526;8.078;2023-05-16T03:53:53;25.60;;;15.33;;
77191;SDS011;66172;48.526;8.078;2023-05-16T03:56:19;24.50;;;15.95;;
77191;SDS011;66172;48.526;8.078;2023-05-16T03:58:46;24.88;;;15.73;;
77191;SDS011;66172;48.526;8.078;2023-05-16T04:01:13;25.35;;;16.65;;
77191;SDS011;66172;48.526;8.078;2023-05-16T04:03:39;25.80;;;16.50;;
77191;SDS011;66172;48.526;8.078;2023-05-16T04:06:05;25.55;;;16.45;;
77191;SDS011;66172;48.526;8.078;2023-05-16T04:08:31;27.08;;;16.42;;
77191;SDS011;66172;48.526;8.078;2023-05-16T04:10:57;27.15;;;16.75;;
77191;SDS011;66172;48.526;8.078;2023-05-16T04:13:23;25.63;;;16.63;;
77191;SDS011;66172;48.526;8.078;2023-05-16T04:15:50;30.60;;;17.40;;
77191;SDS011;66172;48.526;8.078;2023-05-16T04:18:15;29.85;;;18.98;;
77191;SDS011;66172;48.526;8.078;2023-05-16T04:20:41;31.27;;;18.35;;
77191;SDS011;66172;48.526;8.078;2023-05-16T04:23:08;29.47;;;17.57;;
77191;SDS011;66172;48.526;8.078;2023-05-16T04:25:36;35.05;;;18.83;;
77191;SDS011;66172;48.526;8.078;2023-05-16T04:28:02;33.28;;;19.70;;
77191;SDS011;66172;48.526;8.078;2023-05-16T04:30:28;31.08;;;18.80;;
77191;SDS011;66172;48.526;8.078;2023-05-16T04:32:54;32.75;;;18.52;;
77191;SDS011;66172;48.526;8.078;2023-05-16T04:35:21;33.73;;;18.70;;
77191;SDS011;66172;48.526;8.078;2023-05-16T04:37:47;33.90;;;18.98;;
77191;SDS011;66172;48.526;8.078;2023-05-16T04:40:13;34.05;;;19.48;;
77191;SDS011;66172;48.526;8.078;2023-05-16T04:42:39;36.63;;;19.15;;
77191;SDS011;66172;48.526;8.078;2023-05-16T04:45:05;34.73;;;19.30;;
77191;SDS011;66172;48.526;8.078;2023-05-16T04:47:35;36.88;;;20.15;;
77191;SDS011;66172;48.526;8.078;2023-05-16T04:50:01;37.75;;;20.27;;
77191;SDS011;66172;48.526;8.078;2023-05-16T04:52:27;38.97;;;19.23;;
77191;SDS011;66172;48.526;8.078;2023-05-16T04:54:53;39.80;;;19.47;;
77191;SDS011;66172;48.526;8.078;2023-05-16T04:57:19;39.67;;;19.50;;
77191;SDS011;66172;48.526;8.078;2023-05-16T04:59:45;38.90;;;20.20;;
77191;SDS011;66172;48.526;8.078;2023-05-16T05:02:11;40.67;;;20.40;;
77191;SDS011;66172;48.526;8.078;2023-05-16T05:04:37;41.13;;;21.27;;
77191;SDS011;66172;48.526;8.078;2023-05-16T05:07:03;40.05;;;19.67;;
77191;SDS011;66172;48.526;8.078;2023-05-16T05:09:29;41.15;;;21.27;;
77191;SDS011;66172;48.526;8.078;2023-05-16T05:11:54;38.80;;;19.80;;
77191;SDS011;66172;48.526;8.078;2023-05-16T05:14:20;41.95;;;19.70;;
77191;SDS011;66172;48.526;8.078;2023-05-16T05:16:46;39.53;;;20.40;;
77191;SDS011;66172;48.526;8.078;2023-05-16T05:19:12;38.97;;;19.75;;
77191;SDS011;66172;48.526;8.078;2023-05-16T05:21:38;40.17;;;19.67;;
77191;SDS011;66172;48.526;8.078;2023-05-16T05:24:04;42.92;;;20.20;;
77191;SDS011;66172;48.526;8.078;2023-05-16T05:26:30;42.78;;;19.88;;
77191;SDS011;66172;48.526;8.078;2023-05-16T05:28:56;42.27;;;19.30;;
77191;SDS011;66172;48.526;8.078;2023-05-16T05:31:22;44.00;;;20.65;;
77191;SDS011;66172;48.526;8.078;2023-05-16T05:33:48;39.40;;;19.48;;
77191;SDS011;66172;48.526;8.078;2023-05-16T05:36:14;38.53;;;19.17;;
77191;SDS011;66172;48.526;8.078;2023-05-16T05:38:40;41.47;;;19.17;;
77191;SDS011;66172;48.526;8.078;2023-05-16T05:41:06;41.60;;;20.98;;
77191;SDS011;66172;48.526;8.078;2023-05-16T05:43:32;40.97;;;20.35;;
77191;SDS011;66172;48.526;8.078;2023-05-16T05:45:58;39.25;;;19.50;;
77191;SDS011;66172;48.526;8.078;2023-05-16T05:48:24;41.23;;;19.93;;
77191;SDS011;66172;48.526;8.078;2023-05-16T05:50:50;38.50;;;19.90;;
77191;SDS011;66172;48.526;8.078;2023-05-16T05:53:17;39.63;;;19.92;;
77191;SDS011;66172;48.526;8.078;2023-05-16T05:55:43;44.28;;;21.15;;
77191;SDS011;66172;48.526;8.078;2023-05-16T05:58:09;41.80;;;20.67;;
77191;SDS011;66172;48.526;8.078;2023-05-16T06:00:35;39.10;;;20.05;;
77191;SDS011;66172;48.526;8.078;2023-05-16T06:03:01;39.22;;;18.45;;
77191;SDS011;66172;48.526;8.078;2023-05-16T06:05:27;38.40;;;18.50;;
77191;SDS011;66172;48.526;8.078;2023-05-16T06:07:52;37.90;;;18.75;;
77191;SDS011;66172;48.526;8.078;2023-05-16T06:10:18;38.67;;;18.38;;
77191;SDS011;66172;48.526;8.078;2023-05-16T06:12:44;41.53;;;18.07;;
77191;SDS011;66172;48.526;8.078;2023-05-16T06:15:10;37.72;;;17.83;;
77191;SDS011;66172;48.526;8.078;2023-05-16T06:17:36;36.92;;;18.10;;
77191;SDS011;66172;48.526;8.078;2023-05-16T06:20:03;37.60;;;17.10;;
77191;SDS011;66172;48.526;8.078;2023-05-16T06:22:29;34.10;;;17.17;;
77191;SDS011;66172;48.526;8.078;2023-05-16T06:24:55;35.83;;;16.88;;
77191;SDS011;66172;48.526;8.078;2023-05-16T06:27:21;35.47;;;16.95;;
77191;SDS011;66172;48.526;8.078;2023-05-16T06:29:47;34.85;;;16.48;;
77191;SDS011;66172;48.526;8.078;2023-05-16T06:32:13;34.60;;;16.53;;
77191;SDS011;66172;48.526;8.078;2023-05-16T06:34:39;32.58;;;17.17;;
77191;SDS011;66172;48.526;8.078;2023-05-16T06:37:05;35.60;;;17.38;;
77191;SDS011;66172;48.526;8.078;2023-05-16T06:39:31;34.47;;;16.63;;
77191;SDS011;66172;48.526;8.078;2023-05-16T06:41:57;34.75;;;16.75;;
77191;SDS011;66172;48.526;8.078;2023-05-16T06:44:23;31.23;;;16.48;;
77191;SDS011;66172;48.526;8.078;2023-05-16T06:46:48;35.40;;;16.45;;
77191;SDS011;66172;48.526;8.078;2023-05-16T06:49:14;32.70;;;16.87;;
77191;SDS011;66172;48.526;8.078;2023-05-16T06:51:40;35.05;;;16.90;;
77191;SDS011;66172;48.526;8.078;2023-05-16T06:54:06;32.45;;;16.60;;
77191;SDS011;66172;48.526;8.078;2023-05-16T06:56:32;34.77;;;16.30;;
77191;SDS011;66172;48.526;8.078;2023-05-16T06:58:58;34.63;;;17.10;;
77191;SDS011;66172;48.526;8.078;2023-05-16T07:01:26;33.65;;;16.83;;
77191;SDS011;66172;48.526;8.078;2023-05-16T07:03:52;35.78;;;16.85;;
77191;SDS011;66172;48.526;8.078;2023-05-16T07:06:18;38.65;;;17.17;;
77191;SDS011;66172;48.526;8.078;2023-05-16T07:08:44;33.63;;;16.03;;
77191;SDS011;66172;48.526;8.078;2023-05-16T07:11:10;33.25;;;16.83;;
77191;SDS011;66172;48.526;8.078;2023-05-16T07:13:36;34.63;;;16.73;;
77191;SDS011;66172;48.526;8.078;2023-05-16T07:16:02;32.65;;;16.55;;
77191;SDS011;66172;48.526;8.078;2023-05-16T07:18:28;34.10;;;15.77;;
77191;SDS011;66172;48.526;8.078;2023-05-16T07:20:54;32.05;;;16.63;;
77191;SDS011;66172;48.526;8.078;2023-05-16T07:23:20;34.53;;;16.92;;
77191;SDS011;66172;48.526;8.078;2023-05-16T07:25:46;34.45;;;16.67;;
77191;SDS011;66172;48.526;8.078;2023-05-16T07:28:12;28.63;;;14.70;;
77191;SDS011;66172;48.526;8.078;2023-05-16T07:30:38;31.45;;;15.20;;
77191;SDS011;66172;48.526;8.078;2023-05-16T07:33:04;30.67;;;15.77;;
77191;SDS011;66172;48.526;8.078;2023-05-16T07:35:30;29.47;;;15.40;;
77191;SDS011;66172;48.526;8.078;2023-05-16T07:37:56;29.15;;;14.70;;
77191;SDS011;66172;48.526;8.078;2023-05-16T07:40:22;28.45;;;14.23;;
77191;SDS011;66172;48.526;8.078;2023-05-16T07:42:52;30.40;;;15.20;;
77191;SDS011;66172;48.526;8.078;2023-05-16T07:45:18;27.87;;;14.00;;
77191;SDS011;66172;48.526;8.078;2023-05-16T07:47:44;35.35;;;15.60;;
77191;SDS011;66172;48.526;8.078;2023-05-16T07:50:10;28.25;;;13.70;;
77191;SDS011;66172;48.526;8.078;2023-05-16T07:52:36;30.03;;;14.03;;
77191;SDS011;66172;48.526;8.078;2023-05-16T07:55:02;28.47;;;14.33;;
77191;SDS011;66172;48.526;8.078;2023-05-16T07:57:28;30.77;;;13.85;;
77191;SDS011;66172;48.526;8.078;2023-05-16T07:59:54;26.92;;;13.45;;
77191;SDS011;66172;48.526;8.078;2023-05-16T08:02:20;25.63;;;12.73;;
77191;SDS011;66172;48.526;8.078;2023-05-16T08:04:50;30.53;;;12.97;;
77191;SDS011;66172;48.526;8.078;2023-05-16T08:07:16;25.73;;;13.15;;
77191;SDS011;66172;48.526;8.078;2023-05-16T08:09:42;26.27;;;11.73;;
77191;SDS011;66172;48.526;8.078;2023-05-16T08:12:08;22.98;;;11.68;;
77191;SDS011;66172;48.526;8.078;2023-05-16T08:14:34;22.33;;;10.80;;
77191;SDS011;66172;48.526;8.078;2023-05-16T08:17:01;23.42;;;11.00;;
77191;SDS011;66172;48.526;8.078;2023-05-16T08:19:27;19.13;;;9.68;;
77191;SDS011;66172;48.526;8.078;2023-05-16T08:21:54;21.30;;;9.73;;
77191;SDS011;66172;48.526;8.078;2023-05-16T08:24:20;21.50;;;8.57;;
77191;SDS011;66172;48.526;8.078;2023-05-16T08:26:45;20.48;;;9.55;;
77191;SDS011;66172;48.526;8.078;2023-05-16T08:29:11;21.60;;;9.48;;
77191;SDS011;66172;48.526;8.078;2023-05-16T08:31:38;20.43;;;9.40;;
77191;SDS011;66172;48.526;8.078;2023-05-16T08:34:04;18.67;;;8.20;;
77191;SDS011;66172;48.526;8.078;2023-05-16T08:36:31;16.10;;;7.53;;
77191;SDS011;66172;48.526;8.078;2023-05-16T08:39:00;17.45;;;7.13;;
77191;SDS011;66172;48.526;8.078;2023-05-16T08:41:26;15.35;;;7.60;;
77191;SDS011;66172;48.526;8.078;2023-05-16T08:43:52;15.03;;;7.53;;
77191;SDS011;66172;48.526;8.078;2023-05-16T08:46:21;17.23;;;7.70;;
77191;SDS011;66172;48.526;8.078;2023-05-16T08:48:50;14.80;;;7.32;;
77191;SDS011;66172;48.526;8.078;2023-05-16T08:51:18;15.70;;;7.50;;
77191;SDS011;66172;48.526;8.078;2023-05-16T08:53:49;12.32;;;6.95;;
77191;SDS011;66172;48.526;8.078;2023-05-16T08:56:19;12.90;;;6.43;;
77191;SDS011;66172;48.526;8.078;2023-05-16T08:58:47;13.10;;;6.57;;
77191;SDS011;66172;48.526;8.078;2023-05-16T09:01:14;13.63;;;5.78;;
77191;SDS011;66172;48.526;8.078;2023-05-16T09:03:41;11.05;;;5.60;;
77191;SDS011;66172;48.526;8.078;2023-05-16T09:06:07;11.07;;;5.13;;
77191;SDS011;66172;48.526;8.078;2023-05-16T09:08:33;9.90;;;4.53;;
77191;SDS011;66172;48.526;8.078;2023-05-16T09:11:00;8.77;;;4.07;;
77191;SDS011;66172;48.526;8.078;2023-05-16T09:13:26;8.07;;;3.88;;
77191;SDS011;66172;48.526;8.078;2023-05-16T09:16:12;9.40;;;4.10;;
77191;SDS011;66172;48.526;8.078;2023-05-16T09:18:41;8.27;;;3.13;;
77191;SDS011;66172;48.526;8.078;2023-05-16T09:21:09;7.43;;;2.92;;
77191;SDS011;66172;48.526;8.078;2023-05-16T09:23:36;6.60;;;2.60;;
77191;SDS011;66172;48.526;8.078;2023-05-16T09:26:02;6.47;;;2.75;;
77191;SDS011;66172;48.526;8.078;2023-05-16T09:28:30;6.25;;;2.08;;
77191;SDS011;66172;48.526;8.078;2023-05-16T09:30:56;5.63;;;2.50;;
77191;SDS011;66172;48.526;8.078;2023-05-16T09:33:27;4.95;;;1.83;;
77191;SDS011;66172;48.526;8.078;2023-05-16T09:36:00;5.25;;;1.80;;
77191;SDS011;66172;48.526;8.078;2023-05-16T09:38:27;8.52;;;2.55;;
77191;SDS011;66172;48.526;8.078;2023-05-16T09:40:54;4.57;;;1.73;;
77191;SDS011;66172;48.526;8.078;2023-05-16T09:43:22;5.00;;;1.40;;
77191;SDS011;66172;48.526;8.078;2023-05-16T09:45:49;4.55;;;1.27;;
77191;SDS011;66172;48.526;8.078;2023-05-16T09:48:15;5.53;;;1.27;;
77191;SDS011;66172;48.526;8.078;2023-05-16T09:50:45;5.40;;;1.38;;
77191;SDS011;66172;48.526;8.078;2023-05-16T09:53:14;4.23;;;1.10;;
77191;SDS011;66172;48.526;8.078;2023-05-16T09:55:40;5.47;;;1.10;;
77191;SDS011;66172;48.526;8.078;2023-05-16T09:58:06;5.10;;;0.93;;
77191;SDS011;66172;48.526;8.078;2023-05-16T10:00:32;4.85;;;0.93;;
77191;SDS011;66172;48.526;8.078;2023-05-16T10:03:00;3.80;;;1.17;;
77191;SDS011;66172;48.526;8.078;2023-05-16T10:05:28;5.32;;;1.13;;
77191;SDS011;66172;48.526;8.078;2023-05-16T10:07:54;3.92;;;1.10;;
77191;SDS011;66172;48.526;8.078;2023-05-16T10:10:22;5.45;;;1.13;;
77191;SDS011;66172;48.526;8.078;2023-05-16T10:12:49;3.60;;;1.02;;
77191;SDS011;66172;48.526;8.078;2023-05-16T10:15:15;3.80;;;1.10;;
77191;SDS011;66172;48.526;8.078;2023-05-16T10:17:42;4.00;;;0.95;;
77191;SDS011;66172;48.526;8.078;2023-05-16T10:20:15;4.63;;;1.10;;
77191;SDS011;66172;48.526;8.078;2023-05-16T10:22:41;4.35;;;0.88;;
77191;SDS011;66172;48.526;8.078;2023-05-16T10:28:01;4.00;;;1.30;;
77191;SDS011;66172;48.526;8.078;2023-05-16T10:30:27;5.22;;;1.15;;
77191;SDS011;66172;48.526;8.078;2023-05-16T10:32:53;4.35;;;1.40;;
77191;SDS011;66172;48.526;8.078;2023-05-16T10:35:21;4.13;;;1.40;;
77191;SDS011;66172;48.526;8.078;2023-05-16T10:37:47;4.15;;;1.40;;
77191;SDS011;66172;48.526;8.078;2023-05-16T10:40:14;4.90;;;1.60;;
77191;SDS011;66172;48.526;8.078;2023-05-16T10:43:00;4.30;;;1.50;;
77191;SDS011;66172;48.526;8.078;2023-05-16T10:45:28;5.40;;;2.30;;
77191;SDS011;66172;48.526;8.078;2023-05-16T10:47:59;6.25;;;2.10;;
77191;SDS011;66172;48.526;8.078;2023-05-16T10:50:29;5.47;;;2.63;;
77191;SDS011;66172;48.526;8.078;2023-05-16T10:52:55;6.43;;;2.60;;
77191;SDS011;66172;48.526;8.078;2023-05-16T10:55:21;6.32;;;2.88;;
77191;SDS011;66172;48.526;8.078;2023-05-16T10:57:47;6.20;;;3.22;;
77191;SDS011;66172;48.526;8.078;2023-05-16T11:00:20;5.45;;;2.80;;
77191;SDS011;66172;48.526;8.078;2023-05-16T11:02:46;7.17;;;2.77;;
77191;SDS011;66172;48.526;8.078;2023-05-16T11:05:16;5.95;;;2.40;;
77191;SDS011;66172;48.526;8.078;2023-05-16T11:07:43;7.40;;;2.20;;
77191;SDS011;66172;48.526;8.078;2023-05-16T11:10:10;5.35;;;2.40;;
77191;SDS011;66172;48.526;8.078;2023-05-16T11:15:25;5.78;;;1.67;;
77191;SDS011;66172;48.526;8.078;2023-05-16T11:18:08;6.20;;;1.85;;
77191;SDS011;66172;48.526;8.078;2023-05-16T11:20:39;5.15;;;2.00;;
77191;SDS011;66172;48.526;8.078;2023-05-16T11:25:41;4.53;;;1.60;;
77191;SDS011;66172;48.526;8.078;2023-05-16T11:28:11;5.28;;;1.70;;
77191;SDS011;66172;48.526;8.078;2023-05-16T11:30:44;7.22;;;1.70;;
77191;SDS011;66172;48.526;8.078;2023-05-16T11:33:12;4.60;;;1.50;;
77191;SDS011;66172;48.526;8.078;2023-05-16T11:35:38;3.97;;;1.40;;
77191;SDS011;66172;48.526;8.078;2023-05-16T11:38:04;4.17;;;1.40;;
77191;SDS011;66172;48.526;8.078;2023-05-16T11:40:30;4.07;;;1.42;;
77191;SDS011;66172;48.526;8.078;2023-05-16T11:42:58;4.05;;;1.50;;
77191;SDS011;66172;48.526;8.078;2023-05-16T11:45:27;3.70;;;1.15;;
77191;SDS011;66172;48.526;8.078;2023-05-16T11:47:53;4.17;;;1.20;;
77191;SDS011;66172;48.526;8.078;2023-05-16T11:50:20;4.00;;;1.10;;
77191;SDS011;66172;48.526;8.078;2023-05-16T11:52:51;4.00;;;1.20;;
77191;SDS011;66172;48.526;8.078;2023-05-16T11:55:19;4.57;;;1.00;;
77191;SDS011;66172;48.526;8.078;2023-05-16T11:57:48;4.68;;;1.00;;
77191;SDS011;66172;48.526;8.078;2023-05-16T12:00:17;3.50;;;1.20;;
77191;SDS011;66172;48.526;8.078;2023-05-16T12:02:47;3.53;;;1.00;;
77191;SDS011;66172;48.526;8.078;2023-05-16T12:05:14;3.42;;;1.08;;
77191;SDS011;66172;48.526;8.078;2023-05-16T12:07:42;3.58;;;1.10;;
77191;SDS011;66172;48.526;8.078;2023-05-16T12:10:12;3.45;;;1.00;;
77191;SDS011;66172;48.526;8.078;2023-05-16T12:12:40;4.70;;;1.03;;
77191;SDS011;66172;48.526;8.078;2023-05-16T12:15:08;3.92;;;0.90;;
77191;SDS011;66172;48.526;8.078;2023-05-16T12:17:34;4.70;;;1.00;;
77191;SDS011;66172;48.526;8.078;2023-05-16T12:20:02;3.80;;;1.10;;
77191;SDS011;66172;48.526;8.078;2023-05-16T12:22:32;3.92;;;1.30;;
77191;SDS011;66172;48.526;8.078;2023-05-16T12:24:59;4.23;;;1.70;;
77191;SDS011;66172;48.526;8.078;2023-05-16T12:27:25;4.55;;;1.42;;
77191;SDS011;66172;48.526;8.078;2023-05-16T12:29:52;4.78;;;1.70;;
77191;SDS011;66172;48.526;8.078;2023-05-16T12:32:18;4.60;;;1.83;;
77191;SDS011;66172;48.526;8.078;2023-05-16T12:34:50;4.28;;;1.40;;
77191;SDS011;66172;48.526;8.078;2023-05-16T12:37:18;4.27;;;1.20;;
77191;SDS011;66172;48.526;8.078;2023-05-16T12:39:45;3.65;;;0.90;;
77191;SDS011;66172;48.526;8.078;2023-05-16T12:42:12;3.60;;;1.00;;
77191;SDS011;66172;48.526;8.078;2023-05-16T12:44:39;3.30;;;1.00;;
77191;SDS011;66172;48.526;8.078;2023-05-16T12:47:11;4.90;;;1.17;;
77191;SDS011;66172;48.526;8.078;2023-05-16T12:49:46;3.27;;;0.83;;
77191;SDS011;66172;48.526;8.078;2023-05-16T12:52:16;6.43;;;1.45;;
77191;SDS011;66172;48.526;8.078;2023-05-16T12:54:45;4.57;;;1.13;;
77191;SDS011;66172;48.526;8.078;2023-05-16T12:57:11;6.25;;;1.15;;
77191;SDS011;66172;48.526;8.078;2023-05-16T12:59:37;3.45;;;1.10;;
77191;SDS011;66172;48.526;8.078;2023-05-16T13:02:03;3.67;;;1.10;;
77191;SDS011;66172;48.526;8.078;2023-05-16T13:04:29;3.60;;;1.20;;
77191;SDS011;66172;48.526;8.078;2023-05-16T13:06:55;4.70;;;1.13;;
77191;SDS011;66172;48.526;8.078;2023-05-16T13:09:21;3.95;;;1.30;;
77191;SDS011;66172;48.526;8.078;2023-05-16T13:11:48;4.40;;;1.50;;
77191;SDS011;66172;48.526;8.078;2023-05-16T13:14:15;3.40;;;1.30;;
77191;SDS011;66172;48.526;8.078;2023-05-16T13:16:44;4.45;;;1.40;;
77191;SDS011;66172;48.526;8.078;2023-05-16T13:19:10;4.13;;;1.10;;
77191;SDS011;66172;48.526;8.078;2023-05-16T13:21:36;3.63;;;1.00;;
77191;SDS011;66172;48.526;8.078;2023-05-16T13:24:02;3.50;;;1.08;;
77191;SDS011;66172;48.526;8.078;2023-05-16T13:26:28;5.45;;;1.20;;
77191;SDS011;66172;48.526;8.078;2023-05-16T13:28:54;3.88;;;1.00;;
77191;SDS011;66172;48.526;8.078;2023-05-16T13:31:20;3.80;;;0.87;;
77191;SDS011;66172;48.526;8.078;2023-05-16T13:33:47;3.60;;;0.98;;
77191;SDS011;66172;48.526;8.078;2023-05-16T13:36:13;5.50;;;1.13;;
77191;SDS011;66172;48.526;8.078;2023-05-16T13:38:39;4.28;;;0.90;;
77191;SDS011;66172;48.526;8.078;2023-05-16T13:41:06;3.72;;;0.90;;
77191;SDS011;66172;48.526;8.078;2023-05-16T13:43:32;3.63;;;0.80;;
77191;SDS011;66172;48.526;8.078;2023-05-16T13:45:58;3.92;;;0.93;;
77191;SDS011;66172;48.526;8.078;2023-05-16T13:48:24;4.80;;;1.35;;
77191;SDS011;66172;48.526;8.078;2023-05-16T13:50:50;3.83;;;1.10;;
77191;SDS011;66172;48.526;8.078;2023-05-16T13:53:17;4.00;;;1.00;;
77191;SDS011;66172;48.526;8.078;2023-05-16T13:55:43;3.83;;;1.00;;
77191;SDS011;66172;48.526;8.078;2023-05-16T13:58:09;6.82;;;1.58;;
77191;SDS011;66172;48.526;8.078;2023-05-16T14:00:35;7.53;;;1.30;;
77191;SDS011;66172;48.526;8.078;2023-05-16T14:03:01;5.70;;;1.40;;
77191;SDS011;66172;48.526;8.078;2023-05-16T14:05:27;5.18;;;1.70;;
77191;SDS011;66172;48.526;8.078;2023-05-16T14:07:53;5.18;;;1.73;;
77191;SDS011;66172;48.526;8.078;2023-05-16T14:10:19;5.20;;;1.43;;
77191;SDS011;66172;48.526;8.078;2023-05-16T14:12:45;5.35;;;1.40;;
77191;SDS011;66172;48.526;8.078;2023-05-16T14:15:11;5.93;;;2.03;;
77191;SDS011;66172;48.526;8.078;2023-05-16T14:17:37;6.32;;;1.77;;
77191;SDS011;66172;48.526;8.078;2023-05-16T14:20:03;5.07;;;1.80;;
77191;SDS011;66172;48.526;8.078;2023-05-16T14:22:33;5.68;;;2.35;;
77191;SDS011;66172;48.526;8.078;2023-05-16T14:24:59;9.15;;;2.58;;
77191;SDS011;66172;48.526;8.078;2023-05-16T14:27:25;5.28;;;1.80;;
77191;SDS011;66172;48.526;8.078;2023-05-16T14:29:51;8.97;;;2.40;;
77191;SDS011;66172;48.526;8.078;2023-05-16T14:32:17;8.70;;;2.17;;
77191;SDS011;66172;48.526;8.078;2023-05-16T14:34:43;4.90;;;1.95;;
77191;SDS011;66172;48.526;8.078;2023-05-16T14:37:09;9.33;;;1.90;;
77191;SDS011;66172;48.526;8.078;2023-05-16T14:39:35;6.35;;;1.80;;
77191;SDS011;66172;48.526;8.078;2023-05-16T14:42:01;8.90;;;2.15;;
77191;SDS011;66172;48.526;8.078;2023-05-16T14:44:27;6.30;;;1.80;;
77191;SDS011;66172;48.526;8.078;2023-05-16T14:46:53;6.03;;;1.73;;
77191;SDS011;66172;48.526;8.078;2023-05-16T14:49:19;9.25;;;2.00;;
77191;SDS011;66172;48.526;8.078;2023-05-16T14:51:45;7.63;;;1.98;;
77191;SDS011;66172;48.526;8.078;2023-05-16T14:54:13;7.70;;;2.20;;
77191;SDS011;66172;48.526;8.078;2023-05-16T14:56:40;10.50;;;1.60;;